createdAt,value
2023-01-21T00:01:19.180Z,60.31
2023-01-21T00:03:47.589Z,60.33
2023-01-21T00:06:15.662Z,60.27
2023-01-21T00:08:44.134Z,60.47
2023-01-21T00:11:15.357Z,60.33
2023-01-21T00:13:45.811Z,60.23
2023-01-21T00:16:14.339Z,60.33
2023-01-21T00:18:42.860Z,60.33
2023-01-21T00:21:10.880Z,60.35
2023-01-21T00:23:39.019Z,60.27
2023-01-21T00:26:10.777Z,60.29
2023-01-21T00:28:40.209Z,60.28
2023-01-21T00:31:09.336Z,60.29
2023-01-21T00:33:38.294Z,60.15
2023-01-21T00:36:12.287Z,60.08
2023-01-21T00:38:40.876Z,59.99
2023-01-21T00:41:12.135Z,60.07
2023-01-21T00:43:43.989Z,60.14
2023-01-21T00:46:12.261Z,60.22
2023-01-21T00:48:40.764Z,60.14
2023-01-21T00:51:10.049Z,60.05
2023-01-21T00:53:43.380Z,60.04
2023-01-21T00:56:13.737Z,60.00
2023-01-21T00:58:45.039Z,60.08
2023-01-21T01:01:21.882Z,60.06
2023-01-21T01:03:50.749Z,60.14
2023-01-21T01:06:23.718Z,60.01
2023-01-21T01:08:52.176Z,59.86
2023-01-21T01:11:24.980Z,59.97
2023-01-21T01:13:54.438Z,60.00
2023-01-21T01:16:23.380Z,59.93
2023-01-21T01:18:52.793Z,59.99
2023-01-21T01:21:22.403Z,60.07
2023-01-21T01:23:55.901Z,59.91
2023-01-21T01:26:23.980Z,59.90
2023-01-21T01:28:52.873Z,59.83
2023-01-21T01:31:22.161Z,59.70
2023-01-21T01:33:50.302Z,59.83
2023-01-21T01:36:20.834Z,59.68
2023-01-21T01:38:49.068Z,59.80
2023-01-21T01:41:21.546Z,59.91
2023-01-21T01:44:03.543Z,59.77
2023-01-21T01:46:37.060Z,59.76
2023-01-21T01:49:12.376Z,59.80
2023-01-21T01:51:54.577Z,59.86
2023-01-21T01:54:27.694Z,59.84
2023-01-21T01:57:00.078Z,59.74
2023-01-21T01:59:29.853Z,59.67
2023-01-21T02:02:00.617Z,59.68
2023-01-21T02:04:35.634Z,59.67
2023-01-21T02:07:04.124Z,59.67
2023-01-21T02:09:32.097Z,59.60
2023-01-21T02:12:02.384Z,59.69
2023-01-21T02:14:31.930Z,59.73
2023-01-21T02:16:59.924Z,59.80
2023-01-21T02:19:53.359Z,59.70
2023-01-21T02:22:36.890Z,59.66
2023-01-21T02:25:18.679Z,59.59
2023-01-21T02:28:28.814Z,59.65
2023-01-21T02:31:05.871Z,59.69
2023-01-21T02:33:52.908Z,59.63
2023-01-21T02:36:30.132Z,59.64
2023-01-21T02:39:10.835Z,59.66
2023-01-21T02:42:00.624Z,59.48
2023-01-21T02:44:37.639Z,59.42
2023-01-21T02:47:18.265Z,59.46
2023-01-21T02:50:07.213Z,59.49
2023-01-21T02:52:35.289Z,59.48
2023-01-21T02:55:04.504Z,59.39
2023-01-21T02:57:38.730Z,59.43
2023-01-21T03:00:13.347Z,59.47
2023-01-21T03:02:59.531Z,59.38
2023-01-21T03:05:39.782Z,59.39
2023-01-21T03:08:20.247Z,59.29
2023-01-21T03:11:18.298Z,59.33
2023-01-21T03:14:23.928Z,59.43
2023-01-21T03:16:58.629Z,59.41
2023-01-21T03:19:39.840Z,59.34
2023-01-21T03:22:15.886Z,59.29
2023-01-21T03:24:48.468Z,59.43
2023-01-21T03:27:20.884Z,59.41
2023-01-21T03:29:51.588Z,59.36
2023-01-21T03:32:22.427Z,59.42
2023-01-21T03:34:53.668Z,59.42
2023-01-21T03:37:38.128Z,59.40
2023-01-21T03:40:19.163Z,59.46
2023-01-21T03:42:53.720Z,59.34
2023-01-21T03:46:05.192Z,59.47
2023-01-21T03:48:38.937Z,59.28
2023-01-21T03:51:13.946Z,59.30
2023-01-21T03:53:43.436Z,59.33
2023-01-21T03:56:11.511Z,59.44
2023-01-21T03:58:39.583Z,59.41
2023-01-21T04:01:08.015Z,59.24
2023-01-21T04:03:36.147Z,59.32
2023-01-21T04:06:04.222Z,59.56
2023-01-21T04:08:32.310Z,59.30
2023-01-21T04:11:00.268Z,59.30
2023-01-21T04:13:28.458Z,59.34
2023-01-21T04:15:56.426Z,59.33
2023-01-21T04:18:24.608Z,59.33
2023-01-21T04:20:52.791Z,59.29
2023-01-21T04:23:20.834Z,59.33
2023-01-21T04:25:49.560Z,59.33
2023-01-21T04:28:19.165Z,59.43
2023-01-21T04:30:48.181Z,59.32
2023-01-21T04:33:17.670Z,59.30
2023-01-21T04:35:45.651Z,59.28
2023-01-21T04:38:14.443Z,59.27
2023-01-21T04:40:42.994Z,59.07
2023-01-21T04:43:11.104Z,59.16
2023-01-21T04:45:39.303Z,59.17
2023-01-21T04:48:07.879Z,59.22
2023-01-21T04:50:36.244Z,59.07
2023-01-21T04:53:04.335Z,59.20
2023-01-21T04:55:32.412Z,59.12
2023-01-21T04:58:00.492Z,59.20
2023-01-21T05:00:28.975Z,59.26
2023-01-21T05:02:57.158Z,59.16
2023-01-21T05:05:25.416Z,59.31
2023-01-21T05:07:54.531Z,59.20
2023-01-21T05:10:22.616Z,59.34
2023-01-21T05:12:50.992Z,59.28
2023-01-21T05:15:19.070Z,59.30
2023-01-21T05:17:47.344Z,59.26
2023-01-21T05:20:16.184Z,59.33
2023-01-21T05:22:48.925Z,59.16
2023-01-21T05:25:17.213Z,59.25
2023-01-21T05:27:51.531Z,59.15
2023-01-21T05:30:20.425Z,59.26
2023-01-21T05:32:52.911Z,59.24
2023-01-21T05:35:22.775Z,59.06
2023-01-21T05:37:51.203Z,59.09
2023-01-21T05:40:20.035Z,59.12
2023-01-21T05:42:48.371Z,59.13
2023-01-21T05:45:16.553Z,59.24
2023-01-21T05:47:44.939Z,59.12
2023-01-21T05:50:13.025Z,59.11
2023-01-21T05:52:41.408Z,58.99
2023-01-21T05:55:09.989Z,59.22
2023-01-21T05:57:38.163Z,59.07
2023-01-21T06:00:07.364Z,59.19
2023-01-21T06:02:35.584Z,59.03
2023-01-21T06:05:03.931Z,59.10
2023-01-21T06:07:31.904Z,59.02
2023-01-21T06:10:00.032Z,58.87
2023-01-21T06:12:28.147Z,59.09
2023-01-21T06:14:56.337Z,59.17
2023-01-21T06:17:24.300Z,59.00
2023-01-21T06:19:52.800Z,59.14
2023-01-21T06:22:20.979Z,59.20
2023-01-21T06:24:49.054Z,59.16
2023-01-21T06:27:17.131Z,59.17
2023-01-21T06:29:45.411Z,59.02
2023-01-21T06:32:13.375Z,59.19
2023-01-21T06:34:41.365Z,59.33
2023-01-21T06:37:09.436Z,59.08
2023-01-21T06:39:37.922Z,59.08
2023-01-21T06:42:06.200Z,58.98
2023-01-21T06:44:34.169Z,59.20
2023-01-21T06:47:02.534Z,59.01
2023-01-21T06:49:30.636Z,59.04
2023-01-21T06:51:58.710Z,59.07
2023-01-21T06:54:29.411Z,59.07
2023-01-21T06:56:58.859Z,59.08
2023-01-21T06:59:26.926Z,59.12
2023-01-21T07:01:55.426Z,59.11
2023-01-21T07:04:23.827Z,59.22
2023-01-21T07:06:52.284Z,59.21
2023-01-21T07:09:20.979Z,59.21
2023-01-21T07:11:49.774Z,59.22
2023-01-21T07:14:18.049Z,59.15
2023-01-21T07:16:46.019Z,59.13
2023-01-21T07:19:17.716Z,58.97
2023-01-21T07:21:45.870Z,59.08
2023-01-21T07:24:14.024Z,58.94
2023-01-21T07:26:43.339Z,59.07
2023-01-21T07:29:11.443Z,59.11
2023-01-21T07:31:39.642Z,59.24
2023-01-21T07:34:08.184Z,59.14
2023-01-21T07:36:36.298Z,59.18
2023-01-21T07:39:04.460Z,59.23
2023-01-21T07:41:32.405Z,59.40
2023-01-21T07:44:00.510Z,59.41
2023-01-21T07:46:28.583Z,59.36
2023-01-21T07:48:56.954Z,59.47
2023-01-21T07:51:25.191Z,59.63
2023-01-21T07:53:56.910Z,59.65
2023-01-21T07:56:26.904Z,59.63
2023-01-21T07:58:55.203Z,59.69
2023-01-21T08:01:27.223Z,59.71
2023-01-21T08:03:55.450Z,59.82
2023-01-21T08:06:23.745Z,59.78
2023-01-21T08:08:52.206Z,59.68
2023-01-21T08:11:20.135Z,59.77
2023-01-21T08:13:50.195Z,59.96
2023-01-21T08:16:18.313Z,60.00
2023-01-21T08:18:46.561Z,59.98
2023-01-21T08:21:14.948Z,60.01
2023-01-21T08:23:44.087Z,59.94
2023-01-21T08:26:12.732Z,60.05
2023-01-21T08:28:40.811Z,60.16
2023-01-21T08:31:12.078Z,60.13
2023-01-21T08:33:40.656Z,60.21
2023-01-21T08:36:09.759Z,60.11
2023-01-21T08:38:38.228Z,60.16
2023-01-21T08:41:06.231Z,60.08
2023-01-21T08:43:34.485Z,60.05
2023-01-21T08:46:03.361Z,60.10
2023-01-21T08:48:31.542Z,60.00
2023-01-21T08:51:01.036Z,59.97
2023-01-21T08:53:29.143Z,59.97
2023-01-21T08:56:02.341Z,60.04
2023-01-21T08:58:31.434Z,60.05
2023-01-21T09:01:06.425Z,60.00
2023-01-21T09:03:34.556Z,60.17
2023-01-21T09:06:04.270Z,60.12
2023-01-21T09:08:32.652Z,60.07
2023-01-21T09:11:02.157Z,60.24
2023-01-21T09:13:37.193Z,60.24
2023-01-21T09:16:14.950Z,60.21
2023-01-21T09:18:43.690Z,60.04
2023-01-21T09:21:12.851Z,60.05
2023-01-21T09:23:41.381Z,60.09
2023-01-21T09:26:18.350Z,60.05
2023-01-21T09:28:52.664Z,60.09
2023-01-21T09:31:22.098Z,60.08
2023-01-21T09:33:56.383Z,60.02
2023-01-21T09:36:27.300Z,60.18
2023-01-21T09:38:55.619Z,60.06
2023-01-21T09:41:46.206Z,59.98
2023-01-21T09:44:23.187Z,60.18
2023-01-21T09:47:25.576Z,59.94
2023-01-21T09:50:07.945Z,60.03
2023-01-21T09:52:40.660Z,59.97
2023-01-21T09:55:17.782Z,59.93
2023-01-21T09:57:52.264Z,60.00
2023-01-21T10:00:41.884Z,60.08
2023-01-21T10:03:42.432Z,60.04
2023-01-21T10:06:38.735Z,59.95
2023-01-21T10:09:20.085Z,60.07
2023-01-21T10:12:23.549Z,59.99
2023-01-21T10:15:27.297Z,60.01
2023-01-21T10:18:03.653Z,60.07
2023-01-21T10:20:40.942Z,60.03
2023-01-21T10:23:20.582Z,59.93
2023-01-21T10:25:50.194Z,60.00
2023-01-21T10:28:25.944Z,59.87
2023-01-21T10:31:03.129Z,59.88
2023-01-21T10:33:33.364Z,59.85
2023-01-21T10:36:07.468Z,59.95
2023-01-21T10:39:20.774Z,59.93
2023-01-21T10:42:09.935Z,59.96
2023-01-21T10:45:03.928Z,59.99
2023-01-21T10:47:47.231Z,59.96
2023-01-21T10:50:21.196Z,59.94
2023-01-21T10:52:59.645Z,60.06
2023-01-21T10:56:14.079Z,60.01
2023-01-21T10:58:53.996Z,59.99
2023-01-21T11:01:28.190Z,60.11
2023-01-21T11:04:11.581Z,60.02
2023-01-21T11:06:40.672Z,60.00
2023-01-21T11:09:13.282Z,60.08
2023-01-21T11:11:43.083Z,59.96
2023-01-21T11:14:11.242Z,60.04
2023-01-21T11:16:39.480Z,60.07
2023-01-21T11:19:08.321Z,60.09
2023-01-21T11:21:40.142Z,60.12
2023-01-21T11:24:23.638Z,60.13
2023-01-21T11:26:53.225Z,60.11
2023-01-21T11:29:23.047Z,59.97
2023-01-21T11:32:03.513Z,60.02
2023-01-21T11:34:32.105Z,59.87
2023-01-21T11:37:04.863Z,59.99
2023-01-21T11:39:47.265Z,60.06
2023-01-21T11:42:17.339Z,60.06
2023-01-21T11:44:51.303Z,60.17
2023-01-21T11:47:30.417Z,60.15
2023-01-21T11:50:10.073Z,60.04
2023-01-21T11:52:38.143Z,60.08
2023-01-21T11:55:19.433Z,59.97
2023-01-21T11:57:56.805Z,59.89
2023-01-21T12:00:27.625Z,59.92
2023-01-21T12:03:02.013Z,59.99
2023-01-21T12:05:39.367Z,59.98
2023-01-21T12:08:08.077Z,59.95
2023-01-21T12:10:43.506Z,59.97
2023-01-21T12:13:30.395Z,60.04
2023-01-21T12:16:13.921Z,60.07
2023-01-21T12:19:16.904Z,60.00
2023-01-21T12:21:51.119Z,59.92
2023-01-21T12:24:42.503Z,60.06
2023-01-21T12:28:04.741Z,60.01
2023-01-21T12:30:58.498Z,60.05
2023-01-21T12:33:32.846Z,59.93
2023-01-21T12:36:50.317Z,59.99
2023-01-21T12:39:21.366Z,59.92
2023-01-21T12:42:05.245Z,59.93
2023-01-21T12:44:46.274Z,60.08
2023-01-21T12:47:24.589Z,60.06
2023-01-21T12:50:04.435Z,60.07
2023-01-21T12:52:58.179Z,59.94
2023-01-21T12:55:37.149Z,60.08
2023-01-21T12:58:18.661Z,60.19
2023-01-21T13:00:50.517Z,60.06
2023-01-21T13:03:27.749Z,60.09
2023-01-21T13:06:06.572Z,60.14
2023-01-21T13:08:47.026Z,60.11
2023-01-21T13:11:20.120Z,60.16
2023-01-21T13:14:15.008Z,60.08
2023-01-21T13:16:54.345Z,60.11
2023-01-21T13:19:22.872Z,60.18
2023-01-21T13:22:06.456Z,60.18
2023-01-21T13:24:37.503Z,60.22
2023-01-21T13:27:11.406Z,60.16
2023-01-21T13:29:54.687Z,60.19
2023-01-21T13:32:54.650Z,60.29
2023-01-21T13:35:28.445Z,60.29
2023-01-21T13:38:01.884Z,60.34
2023-01-21T13:40:32.778Z,60.34
2023-01-21T13:43:09.974Z,60.26
2023-01-21T13:45:44.258Z,60.27
2023-01-21T13:48:30.481Z,60.22
2023-01-21T13:51:01.663Z,60.15
2023-01-21T13:53:44.143Z,60.11
2023-01-21T13:56:30.215Z,60.13
2023-01-21T13:59:07.915Z,60.02
2023-01-21T14:01:44.570Z,59.89
2023-01-21T14:04:33.643Z,59.84
2023-01-21T14:07:13.517Z,59.81
2023-01-21T14:10:14.791Z,59.81
2023-01-21T14:12:45.981Z,59.78
2023-01-21T14:15:26.425Z,59.75
2023-01-21T14:17:58.188Z,59.76
2023-01-21T14:20:34.985Z,59.63
2023-01-21T14:23:16.148Z,59.67
2023-01-21T14:25:59.657Z,59.76
2023-01-21T14:28:49.743Z,59.64
2023-01-21T14:31:25.166Z,59.74
2023-01-21T14:34:01.125Z,59.67
2023-01-21T14:36:29.220Z,59.64
2023-01-21T14:39:07.838Z,59.72
2023-01-21T14:42:09.780Z,59.65
2023-01-21T14:44:39.698Z,59.86
2023-01-21T14:47:16.079Z,59.80
2023-01-21T14:49:47.161Z,59.74
2023-01-21T14:52:18.443Z,59.78
2023-01-21T14:54:47.472Z,59.64
2023-01-21T14:57:21.989Z,59.74
2023-01-21T14:59:52.137Z,59.75
2023-01-21T15:02:28.068Z,59.72
2023-01-21T15:05:02.183Z,59.78
2023-01-21T15:07:35.785Z,59.87
2023-01-21T15:10:21.052Z,59.77
2023-01-21T15:12:58.262Z,60.01
2023-01-21T15:15:28.162Z,60.06
2023-01-21T15:17:59.700Z,60.02
2023-01-21T15:20:50.402Z,59.96
2023-01-21T15:23:29.264Z,59.86
2023-01-21T15:26:11.128Z,59.97
2023-01-21T15:28:46.064Z,59.86
2023-01-21T15:31:20.176Z,59.89
2023-01-21T15:33:52.720Z,59.75
2023-01-21T15:36:24.311Z,59.69
2023-01-21T15:38:56.962Z,59.85
2023-01-21T15:41:27.113Z,59.67
2023-01-21T15:44:11.237Z,59.69
2023-01-21T15:47:17.782Z,59.78
2023-01-21T15:49:59.176Z,59.83
2023-01-21T15:53:03.885Z,59.77
2023-01-21T15:55:38.006Z,59.63
2023-01-21T15:58:08.630Z,59.61
2023-01-21T16:01:07.963Z,59.71
2023-01-21T16:03:45.537Z,59.73
2023-01-21T16:06:16.456Z,59.81
2023-01-21T16:09:09.311Z,59.76
2023-01-21T16:12:08.895Z,59.61
2023-01-21T16:14:59.908Z,59.54
2023-01-21T16:17:46.600Z,59.51
2023-01-21T16:20:16.732Z,59.35
2023-01-21T16:22:49.443Z,59.43
2023-01-21T16:25:21.675Z,59.38
2023-01-21T16:27:52.947Z,59.42
2023-01-21T16:30:27.161Z,59.46
2023-01-21T16:33:12.921Z,59.46
2023-01-21T16:35:51.848Z,59.61
2023-01-21T16:38:23.920Z,59.59
2023-01-21T16:41:12.593Z,59.49
2023-01-21T16:43:48.077Z,59.52
2023-01-21T16:46:18.809Z,59.58
2023-01-21T16:48:59.504Z,59.44
2023-01-21T16:51:40.366Z,59.29
2023-01-21T16:54:24.782Z,59.42
2023-01-21T16:57:00.580Z,59.55
2023-01-21T16:59:41.351Z,59.44
2023-01-21T17:02:17.900Z,59.39
2023-01-21T17:04:46.505Z,59.41
2023-01-21T17:07:50.629Z,59.46
2023-01-21T17:10:20.722Z,59.30
2023-01-21T17:12:53.127Z,59.25
2023-01-21T17:15:43.221Z,59.14
2023-01-21T17:18:26.290Z,59.11
2023-01-21T17:21:00.398Z,59.12
2023-01-21T17:23:54.375Z,59.17
2023-01-21T17:26:22.458Z,59.16
2023-01-21T17:29:16.108Z,59.30
2023-01-21T17:31:45.149Z,59.18
2023-01-21T17:34:16.455Z,59.20
2023-01-21T17:36:47.228Z,59.27
2023-01-21T17:39:17.212Z,59.35
2023-01-21T17:41:46.567Z,59.33
2023-01-21T17:44:22.288Z,59.33
2023-01-21T17:46:52.848Z,59.35
2023-01-21T17:49:26.612Z,59.38
2023-01-21T17:51:55.607Z,59.32
2023-01-21T17:54:29.929Z,59.40
2023-01-21T17:56:59.546Z,59.22
2023-01-21T17:59:41.816Z,59.14
2023-01-21T18:02:22.030Z,59.22
2023-01-21T18:04:50.680Z,59.39
2023-01-21T18:07:24.188Z,59.27
2023-01-21T18:09:53.957Z,59.17
2023-01-21T18:12:22.480Z,59.30
2023-01-21T18:14:50.561Z,59.25
2023-01-21T18:17:21.500Z,59.21
2023-01-21T18:19:49.781Z,59.20
2023-01-21T18:22:30.355Z,59.21
2023-01-21T18:25:00.576Z,59.26
2023-01-21T18:27:28.845Z,59.16
2023-01-21T18:30:01.942Z,59.12
2023-01-21T18:32:30.316Z,59.16
2023-01-21T18:35:00.044Z,59.13
2023-01-21T18:37:28.114Z,59.18
2023-01-21T18:39:56.189Z,59.09
2023-01-21T18:42:24.987Z,59.14
2023-01-21T18:44:53.086Z,59.12
2023-01-21T18:47:22.884Z,59.10
2023-01-21T18:49:51.252Z,58.99
2023-01-21T18:52:20.902Z,58.98
2023-01-21T18:54:49.038Z,59.01
2023-01-21T18:57:20.492Z,59.05
2023-01-21T18:59:49.042Z,58.85
2023-01-21T19:02:20.153Z,58.80
2023-01-21T19:04:48.824Z,58.74
2023-01-21T19:07:22.443Z,58.78
2023-01-21T19:09:51.266Z,58.86
2023-01-21T19:12:21.556Z,58.76
2023-01-21T19:14:49.529Z,58.67
2023-01-21T19:17:26.095Z,58.75
2023-01-21T19:19:55.196Z,58.65
2023-01-21T19:22:23.234Z,58.71
2023-01-21T19:24:51.346Z,58.68
2023-01-21T19:27:28.353Z,58.57
2023-01-21T19:29:56.607Z,58.56
2023-01-21T19:32:24.684Z,58.72
2023-01-21T19:34:52.759Z,58.66
2023-01-21T19:37:24.124Z,58.80
2023-01-21T19:39:52.158Z,58.58
2023-01-21T19:42:20.568Z,58.72
2023-01-21T19:44:48.538Z,58.66
2023-01-21T19:47:27.723Z,58.56
2023-01-21T19:49:55.760Z,58.63
2023-01-21T19:52:24.033Z,58.58
2023-01-21T19:54:54.862Z,58.33
2023-01-21T19:57:23.176Z,58.64
2023-01-21T19:59:52.999Z,58.54
2023-01-21T20:02:21.275Z,58.49
2023-01-21T20:04:49.624Z,58.43
2023-01-21T20:07:18.018Z,58.42
2023-01-21T20:09:45.993Z,58.26
2023-01-21T20:12:14.273Z,58.30
2023-01-21T20:14:42.451Z,58.25
2023-01-21T20:17:14.310Z,58.30
2023-01-21T20:19:42.487Z,58.36
2023-01-21T20:22:12.419Z,58.26
2023-01-21T20:24:40.541Z,58.23
2023-01-21T20:27:14.291Z,58.20
2023-01-21T20:29:49.488Z,58.30
2023-01-21T20:32:23.524Z,58.68
2023-01-21T20:34:51.727Z,59.04
2023-01-21T20:37:19.801Z,59.08
2023-01-21T20:39:48.288Z,59.28
2023-01-21T20:42:16.331Z,59.31
2023-01-21T20:44:44.329Z,59.45
2023-01-21T20:47:12.356Z,59.23
2023-01-21T20:49:40.593Z,59.37
2023-01-21T20:52:11.233Z,59.21
2023-01-21T20:54:39.303Z,59.25
2023-01-21T20:57:13.634Z,59.19
2023-01-21T20:59:41.693Z,59.58
2023-01-21T21:02:12.908Z,60.03
2023-01-21T21:04:41.121Z,60.33
2023-01-21T21:07:16.171Z,60.69
2023-01-21T21:09:44.230Z,60.96
2023-01-21T21:12:12.413Z,61.20
2023-01-21T21:14:40.467Z,61.14
2023-01-21T21:17:11.992Z,60.76
2023-01-21T21:19:40.123Z,60.41
2023-01-21T21:22:08.406Z,60.25
2023-01-21T21:24:36.325Z,60.27
2023-01-21T21:27:04.561Z,60.21
2023-01-21T21:29:32.751Z,60.29
2023-01-21T21:32:02.331Z,60.26
2023-01-21T21:34:30.323Z,60.32
2023-01-21T21:36:58.503Z,60.27
2023-01-21T21:39:26.481Z,60.12
2023-01-21T21:42:15.835Z,59.86
2023-01-21T21:44:44.500Z,59.88
2023-01-21T21:47:31.429Z,59.89
2023-01-21T21:49:59.712Z,59.48
2023-01-21T21:52:27.891Z,59.27
2023-01-21T21:54:56.283Z,59.12
2023-01-21T21:57:24.471Z,59.05
2023-01-21T21:59:52.531Z,59.10
2023-01-21T22:02:20.562Z,58.97
2023-01-21T22:04:48.781Z,59.00
2023-01-21T22:07:16.862Z,58.84
2023-01-21T22:09:45.038Z,58.97
2023-01-21T22:12:13.230Z,58.72
2023-01-21T22:14:41.294Z,58.79
2023-01-21T22:17:09.499Z,58.80
2023-01-21T22:19:37.898Z,58.81
2023-01-21T22:22:06.043Z,58.78
2023-01-21T22:24:34.324Z,58.82
2023-01-21T22:27:02.628Z,58.83
2023-01-21T22:29:30.730Z,58.72
2023-01-21T22:31:59.030Z,58.74
2023-01-21T22:34:27.337Z,58.80
2023-01-21T22:36:55.483Z,58.64
2023-01-21T22:39:23.907Z,58.69
2023-01-21T22:41:55.297Z,58.68
2023-01-21T22:44:23.331Z,58.65
2023-01-21T22:46:51.303Z,58.70
2023-01-21T22:49:19.315Z,58.64
2023-01-21T22:51:47.347Z,58.43
2023-01-21T22:54:15.432Z,58.41
2023-01-21T22:56:52.482Z,58.55
2023-01-21T22:59:21.727Z,58.50
2023-01-21T23:01:51.399Z,58.37
2023-01-21T23:04:19.642Z,58.49
2023-01-21T23:06:48.908Z,58.57
2023-01-21T23:09:17.104Z,58.49
2023-01-21T23:11:45.404Z,58.52
2023-01-21T23:14:13.666Z,58.28
2023-01-21T23:16:41.734Z,58.27
2023-01-21T23:19:09.800Z,58.46
2023-01-21T23:21:38.603Z,58.29
2023-01-21T23:24:07.804Z,58.44
2023-01-21T23:26:37.332Z,58.41
2023-01-21T23:29:05.382Z,58.30
2023-01-21T23:31:33.713Z,58.26
2023-01-21T23:34:03.594Z,58.28
2023-01-21T23:36:31.763Z,58.21
2023-01-21T23:39:00.053Z,58.33
2023-01-21T23:41:28.343Z,58.29
2023-01-21T23:44:01.099Z,58.30
2023-01-21T23:46:29.724Z,58.20
2023-01-21T23:48:57.903Z,58.26
2023-01-21T23:51:26.063Z,58.26
2023-01-21T23:53:56.191Z,58.20
2023-01-21T23:56:25.588Z,58.19
2023-01-21T23:58:53.862Z,58.34
